sensor_id;sensor_type;location;lat;lon;timestamp;P1;durP1;ratioP1;P2;durP2;ratioP2
35606;SDS011;21729;58.392;15.656;2023-02-28T00:00:10;1.10;;;1.00;;
35606;SDS011;21729;58.392;15.656;2023-02-28T00:02:38;1.30;;;1.20;;
35606;SDS011;21729;58.392;15.656;2023-02-28T00:05:07;1.45;;;1.00;;
35606;SDS011;21729;58.392;15.656;2023-02-28T00:07:37;1.35;;;1.20;;
35606;SDS011;21729;58.392;15.656;2023-02-28T00:10:05;1.88;;;1.42;;
35606;SDS011;21729;58.392;15.656;2023-02-28T00:12:33;1.50;;;1.40;;
35606;SDS011;21729;58.392;15.656;2023-02-28T00:15:01;1.20;;;1.10;;
35606;SDS011;21729;58.392;15.656;2023-02-28T00:17:28;1.30;;;1.20;;
35606;SDS011;21729;58.392;15.656;2023-02-28T00:19:55;1.40;;;1.30;;
35606;SDS011;21729;58.392;15.656;2023-02-28T00:22:26;1.85;;;1.20;;
35606;SDS011;21729;58.392;15.656;2023-02-28T00:24:55;1.35;;;1.20;;
35606;SDS011;21729;58.392;15.656;2023-02-28T00:27:22;1.30;;;1.20;;
35606;SDS011;21729;58.392;15.656;2023-02-28T00:29:50;1.42;;;1.20;;
35606;SDS011;21729;58.392;15.656;2023-02-28T00:32:19;1.30;;;1.20;;
35606;SDS011;21729;58.392;15.656;2023-02-28T00:34:46;1.30;;;1.20;;
35606;SDS011;21729;58.392;15.656;2023-02-28T00:37:13;1.30;;;1.20;;
35606;SDS011;21729;58.392;15.656;2023-02-28T00:39:40;1.63;;;1.25;;
35606;SDS011;21729;58.392;15.656;2023-02-28T00:42:09;1.20;;;1.00;;
35606;SDS011;21729;58.392;15.656;2023-02-28T00:44:36;0.90;;;0.90;;
35606;SDS011;21729;58.392;15.656;2023-02-28T00:47:03;1.20;;;1.10;;
35606;SDS011;21729;58.392;15.656;2023-02-28T00:49:31;1.30;;;1.10;;
35606;SDS011;21729;58.392;15.656;2023-02-28T00:51:58;1.38;;;1.27;;
35606;SDS011;21729;58.392;15.656;2023-02-28T00:54:25;1.20;;;1.10;;
35606;SDS011;21729;58.392;15.656;2023-02-28T00:56:52;1.20;;;1.10;;
35606;SDS011;21729;58.392;15.656;2023-02-28T00:59:21;1.80;;;1.10;;
35606;SDS011;21729;58.392;15.656;2023-02-28T01:01:48;1.10;;;1.00;;
35606;SDS011;21729;58.392;15.656;2023-02-28T01:04:15;1.30;;;1.10;;
35606;SDS011;21729;58.392;15.656;2023-02-28T01:06:42;1.10;;;0.90;;
35606;SDS011;21729;58.392;15.656;2023-02-28T01:09:10;0.95;;;0.90;;
35606;SDS011;21729;58.392;15.656;2023-02-28T01:11:37;1.02;;;0.93;;
35606;SDS011;21729;58.392;15.656;2023-02-28T01:14:06;1.48;;;1.00;;
35606;SDS011;21729;58.392;15.656;2023-02-28T01:16:36;1.23;;;0.90;;
35606;SDS011;21729;58.392;15.656;2023-02-28T01:19:06;1.25;;;1.00;;
35606;SDS011;21729;58.392;15.656;2023-02-28T01:21:33;1.40;;;1.13;;
35606;SDS011;21729;58.392;15.656;2023-02-28T01:24:01;1.42;;;1.02;;
35606;SDS011;21729;58.392;15.656;2023-02-28T01:26:29;1.40;;;0.93;;
35606;SDS011;21729;58.392;15.656;2023-02-28T01:28:56;2.00;;;0.97;;
35606;SDS011;21729;58.392;15.656;2023-02-28T01:31:24;1.35;;;0.80;;
35606;SDS011;21729;58.392;15.656;2023-02-28T01:33:52;1.73;;;0.90;;
35606;SDS011;21729;58.392;15.656;2023-02-28T01:36:20;1.25;;;1.00;;
35606;SDS011;21729;58.392;15.656;2023-02-28T01:38:48;2.00;;;0.93;;
35606;SDS011;21729;58.392;15.656;2023-02-28T01:41:16;0.80;;;0.80;;
35606;SDS011;21729;58.392;15.656;2023-02-28T01:43:53;1.05;;;0.90;;
35606;SDS011;21729;58.392;15.656;2023-02-28T01:46:28;1.35;;;0.98;;
35606;SDS011;21729;58.392;15.656;2023-02-28T01:48:58;0.90;;;0.90;;
35606;SDS011;21729;58.392;15.656;2023-02-28T01:51:30;1.50;;;1.00;;
35606;SDS011;21729;58.392;15.656;2023-02-28T01:54:02;1.13;;;0.90;;
35606;SDS011;21729;58.392;15.656;2023-02-28T01:56:32;1.35;;;1.00;;
35606;SDS011;21729;58.392;15.656;2023-02-28T01:59:02;1.40;;;1.00;;
35606;SDS011;21729;58.392;15.656;2023-02-28T02:01:30;0.80;;;0.80;;
35606;SDS011;21729;58.392;15.656;2023-02-28T02:04:00;1.15;;;1.00;;
35606;SDS011;21729;58.392;15.656;2023-02-28T02:06:29;1.23;;;0.98;;
35606;SDS011;21729;58.392;15.656;2023-02-28T02:09:02;1.00;;;0.95;;
35606;SDS011;21729;58.392;15.656;2023-02-28T02:11:29;1.70;;;0.77;;
35606;SDS011;21729;58.392;15.656;2023-02-28T02:14:10;1.02;;;0.90;;
35606;SDS011;21729;58.392;15.656;2023-02-28T02:16:52;1.60;;;0.95;;
35606;SDS011;21729;58.392;15.656;2023-02-28T02:22:41;1.20;;;0.98;;
35606;SDS011;21729;58.392;15.656;2023-02-28T02:25:34;0.90;;;0.90;;
35606;SDS011;21729;58.392;15.656;2023-02-28T02:31:45;1.00;;;0.90;;
35606;SDS011;21729;58.392;15.656;2023-02-28T02:34:44;2.63;;;1.00;;
35606;SDS011;21729;58.392;15.656;2023-02-28T02:37:27;1.38;;;0.90;;
35606;SDS011;21729;58.392;15.656;2023-02-28T02:40:03;1.60;;;0.90;;
35606;SDS011;21729;58.392;15.656;2023-02-28T02:42:39;1.13;;;0.90;;
35606;SDS011;21729;58.392;15.656;2023-02-28T02:45:11;1.67;;;1.00;;
35606;SDS011;21729;58.392;15.656;2023-02-28T02:47:43;0.88;;;0.88;;
35606;SDS011;21729;58.392;15.656;2023-02-28T02:50:13;1.10;;;1.00;;
35606;SDS011;21729;58.392;15.656;2023-02-28T02:52:47;0.98;;;0.93;;
35606;SDS011;21729;58.392;15.656;2023-02-28T02:55:18;1.00;;;1.00;;
35606;SDS011;21729;58.392;15.656;2023-02-28T02:57:49;1.30;;;0.98;;
35606;SDS011;21729;58.392;15.656;2023-02-28T03:00:20;1.38;;;1.00;;
35606;SDS011;21729;58.392;15.656;2023-02-28T03:02:51;1.20;;;1.10;;
35606;SDS011;21729;58.392;15.656;2023-02-28T03:05:23;1.05;;;0.98;;
35606;SDS011;21729;58.392;15.656;2023-02-28T03:07:53;1.17;;;0.98;;
35606;SDS011;21729;58.392;15.656;2023-02-28T03:10:28;1.42;;;1.00;;
35606;SDS011;21729;58.392;15.656;2023-02-28T03:16:04;2.03;;;1.15;;
35606;SDS011;21729;58.392;15.656;2023-02-28T03:18:48;1.23;;;1.10;;
35606;SDS011;21729;58.392;15.656;2023-02-28T03:21:23;1.10;;;1.00;;
35606;SDS011;21729;58.392;15.656;2023-02-28T03:23:55;1.30;;;1.13;;
35606;SDS011;21729;58.392;15.656;2023-02-28T03:26:29;1.60;;;1.30;;
35606;SDS011;21729;58.392;15.656;2023-02-28T03:29:01;1.20;;;1.10;;
35606;SDS011;21729;58.392;15.656;2023-02-28T03:31:32;1.27;;;1.17;;
35606;SDS011;21729;58.392;15.656;2023-02-28T03:34:04;1.53;;;1.10;;
35606;SDS011;21729;58.392;15.656;2023-02-28T03:36:38;1.40;;;1.10;;
35606;SDS011;21729;58.392;15.656;2023-02-28T03:39:09;1.73;;;1.10;;
35606;SDS011;21729;58.392;15.656;2023-02-28T03:41:43;1.20;;;1.10;;
35606;SDS011;21729;58.392;15.656;2023-02-28T03:44:15;1.33;;;1.13;;
35606;SDS011;21729;58.392;15.656;2023-02-28T03:46:46;1.50;;;1.10;;
35606;SDS011;21729;58.392;15.656;2023-02-28T03:49:20;1.25;;;1.10;;
35606;SDS011;21729;58.392;15.656;2023-02-28T03:51:51;1.10;;;1.10;;
35606;SDS011;21729;58.392;15.656;2023-02-28T03:54:21;1.00;;;0.95;;
35606;SDS011;21729;58.392;15.656;2023-02-28T03:56:53;2.85;;;1.20;;
35606;SDS011;21729;58.392;15.656;2023-02-28T03:59:26;1.20;;;1.10;;
35606;SDS011;21729;58.392;15.656;2023-02-28T04:01:56;1.52;;;1.00;;
35606;SDS011;21729;58.392;15.656;2023-02-28T04:04:24;1.45;;;1.20;;
35606;SDS011;21729;58.392;15.656;2023-02-28T04:06:53;1.42;;;1.30;;
35606;SDS011;21729;58.392;15.656;2023-02-28T04:09:28;1.70;;;1.30;;
35606;SDS011;21729;58.392;15.656;2023-02-28T04:11:55;1.40;;;1.30;;
35606;SDS011;21729;58.392;15.656;2023-02-28T04:14:22;1.15;;;1.05;;
35606;SDS011;21729;58.392;15.656;2023-02-28T04:16:50;1.45;;;1.17;;
35606;SDS011;21729;58.392;15.656;2023-02-28T04:19:18;1.30;;;1.20;;
35606;SDS011;21729;58.392;15.656;2023-02-28T04:21:45;1.35;;;1.10;;
35606;SDS011;21729;58.392;15.656;2023-02-28T04:24:15;1.92;;;1.20;;
35606;SDS011;21729;58.392;15.656;2023-02-28T04:26:44;1.67;;;1.23;;
35606;SDS011;21729;58.392;15.656;2023-02-28T04:29:13;1.05;;;1.05;;
35606;SDS011;21729;58.392;15.656;2023-02-28T04:31:45;1.88;;;1.20;;
35606;SDS011;21729;58.392;15.656;2023-02-28T04:34:12;1.30;;;1.20;;
35606;SDS011;21729;58.392;15.656;2023-02-28T04:36:39;1.47;;;1.20;;
35606;SDS011;21729;58.392;15.656;2023-02-28T04:39:07;2.30;;;1.35;;
35606;SDS011;21729;58.392;15.656;2023-02-28T04:41:36;2.33;;;1.23;;
35606;SDS011;21729;58.392;15.656;2023-02-28T04:44:04;1.60;;;1.35;;
35606;SDS011;21729;58.392;15.656;2023-02-28T04:46:31;1.20;;;1.10;;
35606;SDS011;21729;58.392;15.656;2023-02-28T04:48:58;1.95;;;1.17;;
35606;SDS011;21729;58.392;15.656;2023-02-28T04:51:25;2.45;;;1.30;;
35606;SDS011;21729;58.392;15.656;2023-02-28T04:53:53;1.30;;;1.20;;
35606;SDS011;21729;58.392;15.656;2023-02-28T04:56:20;1.40;;;1.25;;
35606;SDS011;21729;58.392;15.656;2023-02-28T04:58:49;1.40;;;1.30;;
35606;SDS011;21729;58.392;15.656;2023-02-28T05:01:19;1.20;;;1.10;;
35606;SDS011;21729;58.392;15.656;2023-02-28T05:03:48;1.50;;;1.27;;
35606;SDS011;21729;58.392;15.656;2023-02-28T05:06:16;1.52;;;1.15;;
35606;SDS011;21729;58.392;15.656;2023-02-28T05:08:43;2.05;;;1.20;;
35606;SDS011;21729;58.392;15.656;2023-02-28T05:11:14;1.48;;;1.10;;
35606;SDS011;21729;58.392;15.656;2023-02-28T05:13:43;1.27;;;1.10;;
35606;SDS011;21729;58.392;15.656;2023-02-28T05:16:12;1.20;;;1.10;;
35606;SDS011;21729;58.392;15.656;2023-02-28T05:18:39;1.52;;;1.10;;
35606;SDS011;21729;58.392;15.656;2023-02-28T05:21:12;1.45;;;1.10;;
35606;SDS011;21729;58.392;15.656;2023-02-28T05:23:52;2.22;;;1.10;;
35606;SDS011;21729;58.392;15.656;2023-02-28T05:26:20;1.07;;;1.00;;
35606;SDS011;21729;58.392;15.656;2023-02-28T05:28:48;1.40;;;1.10;;
35606;SDS011;21729;58.392;15.656;2023-02-28T05:31:16;1.75;;;1.10;;
35606;SDS011;21729;58.392;15.656;2023-02-28T05:33:43;1.20;;;1.10;;
35606;SDS011;21729;58.392;15.656;2023-02-28T05:36:10;1.10;;;1.10;;
35606;SDS011;21729;58.392;15.656;2023-02-28T05:38:37;1.30;;;1.20;;
35606;SDS011;21729;58.392;15.656;2023-02-28T05:41:05;1.20;;;1.10;;
35606;SDS011;21729;58.392;15.656;2023-02-28T05:43:33;1.77;;;1.20;;
35606;SDS011;21729;58.392;15.656;2023-02-28T05:46:02;1.35;;;1.20;;
35606;SDS011;21729;58.392;15.656;2023-02-28T05:48:32;1.23;;;1.10;;
35606;SDS011;21729;58.392;15.656;2023-02-28T05:50:59;1.33;;;1.23;;
35606;SDS011;21729;58.392;15.656;2023-02-28T05:53:27;2.20;;;1.10;;
35606;SDS011;21729;58.392;15.656;2023-02-28T05:55:55;1.20;;;1.10;;
35606;SDS011;21729;58.392;15.656;2023-02-28T05:58:22;1.67;;;1.27;;
35606;SDS011;21729;58.392;15.656;2023-02-28T06:00:50;1.20;;;1.10;;
35606;SDS011;21729;58.392;15.656;2023-02-28T06:03:21;1.95;;;1.30;;
35606;SDS011;21729;58.392;15.656;2023-02-28T06:05:50;1.37;;;1.27;;
35606;SDS011;21729;58.392;15.656;2023-02-28T06:08:17;2.10;;;1.10;;
35606;SDS011;21729;58.392;15.656;2023-02-28T06:10:44;1.33;;;1.15;;
35606;SDS011;21729;58.392;15.656;2023-02-28T06:13:11;1.23;;;1.10;;
35606;SDS011;21729;58.392;15.656;2023-02-28T06:15:39;2.40;;;1.20;;
35606;SDS011;21729;58.392;15.656;2023-02-28T06:18:07;1.15;;;1.05;;
35606;SDS011;21729;58.392;15.656;2023-02-28T06:20:34;1.27;;;1.17;;
35606;SDS011;21729;58.392;15.656;2023-02-28T06:23:02;1.30;;;1.20;;
35606;SDS011;21729;58.392;15.656;2023-02-28T06:25:30;1.40;;;1.27;;
35606;SDS011;21729;58.392;15.656;2023-02-28T06:27:57;1.17;;;1.10;;
35606;SDS011;21729;58.392;15.656;2023-02-28T06:30:24;1.60;;;1.30;;
35606;SDS011;21729;58.392;15.656;2023-02-28T06:32:55;2.55;;;1.00;;
35606;SDS011;21729;58.392;15.656;2023-02-28T06:35:22;1.20;;;1.10;;
35606;SDS011;21729;58.392;15.656;2023-02-28T06:37:49;1.55;;;1.30;;
35606;SDS011;21729;58.392;15.656;2023-02-28T06:40:18;1.50;;;1.02;;
35606;SDS011;21729;58.392;15.656;2023-02-28T06:42:45;1.20;;;1.10;;
35606;SDS011;21729;58.392;15.656;2023-02-28T06:45:12;1.80;;;1.20;;
35606;SDS011;21729;58.392;15.656;2023-02-28T06:47:40;1.30;;;1.20;;
35606;SDS011;21729;58.392;15.656;2023-02-28T06:50:11;2.42;;;1.20;;
35606;SDS011;21729;58.392;15.656;2023-02-28T06:52:39;2.08;;;1.30;;
35606;SDS011;21729;58.392;15.656;2023-02-28T06:55:06;1.83;;;1.10;;
35606;SDS011;21729;58.392;15.656;2023-02-28T06:57:35;1.60;;;1.30;;
35606;SDS011;21729;58.392;15.656;2023-02-28T07:00:04;1.60;;;1.13;;
35606;SDS011;21729;58.392;15.656;2023-02-28T07:02:33;3.10;;;1.50;;
35606;SDS011;21729;58.392;15.656;2023-02-28T07:05:01;1.80;;;1.30;;
35606;SDS011;21729;58.392;15.656;2023-02-28T07:07:28;2.22;;;1.30;;
35606;SDS011;21729;58.392;15.656;2023-02-28T07:09:55;2.22;;;1.40;;
35606;SDS011;21729;58.392;15.656;2023-02-28T07:12:22;2.55;;;1.40;;
35606;SDS011;21729;58.392;15.656;2023-02-28T07:14:51;2.22;;;1.42;;
35606;SDS011;21729;58.392;15.656;2023-02-28T07:17:19;2.15;;;1.20;;
35606;SDS011;21729;58.392;15.656;2023-02-28T07:19:46;2.60;;;1.30;;
35606;SDS011;21729;58.392;15.656;2023-02-28T07:22:14;2.00;;;1.30;;
35606;SDS011;21729;58.392;15.656;2023-02-28T07:24:41;2.40;;;1.33;;
35606;SDS011;21729;58.392;15.656;2023-02-28T07:27:08;1.67;;;1.40;;
35606;SDS011;21729;58.392;15.656;2023-02-28T07:29:35;2.35;;;1.30;;
35606;SDS011;21729;58.392;15.656;2023-02-28T07:32:04;1.98;;;1.38;;
35606;SDS011;21729;58.392;15.656;2023-02-28T07:34:31;2.47;;;1.00;;
35606;SDS011;21729;58.392;15.656;2023-02-28T07:36:58;2.28;;;1.08;;
35606;SDS011;21729;58.392;15.656;2023-02-28T07:39:28;1.70;;;1.10;;
35606;SDS011;21729;58.392;15.656;2023-02-28T07:41:55;1.30;;;1.10;;
35606;SDS011;21729;58.392;15.656;2023-02-28T07:44:23;1.33;;;0.95;;
35606;SDS011;21729;58.392;15.656;2023-02-28T07:46:50;3.28;;;1.25;;
35606;SDS011;21729;58.392;15.656;2023-02-28T07:49:19;1.63;;;1.25;;
35606;SDS011;21729;58.392;15.656;2023-02-28T07:51:46;2.08;;;1.15;;
35606;SDS011;21729;58.392;15.656;2023-02-28T07:54:13;2.00;;;1.00;;
35606;SDS011;21729;58.392;15.656;2023-02-28T07:56:40;1.20;;;0.98;;
35606;SDS011;21729;58.392;15.656;2023-02-28T07:59:07;1.80;;;1.20;;
35606;SDS011;21729;58.392;15.656;2023-02-28T08:01:34;1.65;;;1.00;;
35606;SDS011;21729;58.392;15.656;2023-02-28T08:04:01;1.35;;;0.80;;
35606;SDS011;21729;58.392;15.656;2023-02-28T08:06:30;0.93;;;0.90;;
35606;SDS011;21729;58.392;15.656;2023-02-28T08:08:57;1.13;;;0.90;;
35606;SDS011;21729;58.392;15.656;2023-02-28T08:11:24;1.00;;;0.90;;
35606;SDS011;21729;58.392;15.656;2023-02-28T08:13:51;0.98;;;0.85;;
35606;SDS011;21729;58.392;15.656;2023-02-28T08:16:18;1.00;;;0.82;;
35606;SDS011;21729;58.392;15.656;2023-02-28T08:18:47;1.85;;;0.90;;
35606;SDS011;21729;58.392;15.656;2023-02-28T08:21:15;0.88;;;0.75;;
35606;SDS011;21729;58.392;15.656;2023-02-28T08:23:45;1.20;;;0.70;;
35606;SDS011;21729;58.392;15.656;2023-02-28T08:26:13;1.20;;;0.70;;
35606;SDS011;21729;58.392;15.656;2023-02-28T08:28:41;1.75;;;0.70;;
35606;SDS011;21729;58.392;15.656;2023-02-28T08:31:08;0.75;;;0.68;;
35606;SDS011;21729;58.392;15.656;2023-02-28T08:33:36;1.05;;;0.70;;
35606;SDS011;21729;58.392;15.656;2023-02-28T08:36:04;1.00;;;0.70;;
35606;SDS011;21729;58.392;15.656;2023-02-28T08:38:33;1.55;;;0.90;;
35606;SDS011;21729;58.392;15.656;2023-02-28T08:41:02;0.98;;;0.80;;
35606;SDS011;21729;58.392;15.656;2023-02-28T08:43:32;0.77;;;0.77;;
35606;SDS011;21729;58.392;15.656;2023-02-28T08:45:59;1.05;;;0.90;;
35606;SDS011;21729;58.392;15.656;2023-02-28T08:48:27;1.30;;;0.73;;
35606;SDS011;21729;58.392;15.656;2023-02-28T08:50:55;1.30;;;0.85;;
35606;SDS011;21729;58.392;15.656;2023-02-28T08:53:23;1.07;;;0.83;;
35606;SDS011;21729;58.392;15.656;2023-02-28T08:55:56;1.03;;;0.63;;
35606;SDS011;21729;58.392;15.656;2023-02-28T08:58:25;1.35;;;0.80;;
35606;SDS011;21729;58.392;15.656;2023-02-28T09:00:53;2.10;;;0.80;;
35606;SDS011;21729;58.392;15.656;2023-02-28T09:03:21;0.85;;;0.75;;
35606;SDS011;21729;58.392;15.656;2023-02-28T09:05:52;2.40;;;0.77;;
35606;SDS011;21729;58.392;15.656;2023-02-28T09:08:20;0.93;;;0.80;;
35606;SDS011;21729;58.392;15.656;2023-02-28T09:10:47;0.88;;;0.77;;
35606;SDS011;21729;58.392;15.656;2023-02-28T09:13:14;1.05;;;0.70;;
35606;SDS011;21729;58.392;15.656;2023-02-28T09:15:43;0.90;;;0.68;;
35606;SDS011;21729;58.392;15.656;2023-02-28T09:18:10;2.00;;;0.60;;
35606;SDS011;21729;58.392;15.656;2023-02-28T09:20:37;1.15;;;0.93;;
35606;SDS011;21729;58.392;15.656;2023-02-28T09:23:05;1.27;;;0.70;;
35606;SDS011;21729;58.392;15.656;2023-02-28T09:25:32;0.70;;;0.70;;
35606;SDS011;21729;58.392;15.656;2023-02-28T09:27:59;2.05;;;0.80;;
35606;SDS011;21729;58.392;15.656;2023-02-28T09:30:27;1.70;;;0.70;;
35606;SDS011;21729;58.392;15.656;2023-02-28T09:32:55;0.60;;;0.60;;
35606;SDS011;21729;58.392;15.656;2023-02-28T09:35:23;1.08;;;0.60;;
35606;SDS011;21729;58.392;15.656;2023-02-28T09:37:52;1.77;;;0.70;;
35606;SDS011;21729;58.392;15.656;2023-02-28T09:40:19;2.63;;;0.70;;
35606;SDS011;21729;58.392;15.656;2023-02-28T09:42:49;1.60;;;0.50;;
35606;SDS011;21729;58.392;15.656;2023-02-28T09:45:21;0.65;;;0.52;;
35606;SDS011;21729;58.392;15.656;2023-02-28T09:47:51;1.90;;;0.55;;
35606;SDS011;21729;58.392;15.656;2023-02-28T09:50:28;1.92;;;0.60;;
35606;SDS011;21729;58.392;15.656;2023-02-28T09:53:00;2.42;;;0.50;;
35606;SDS011;21729;58.392;15.656;2023-02-28T09:55:31;0.80;;;0.70;;
35606;SDS011;21729;58.392;15.656;2023-02-28T09:58:03;2.60;;;0.55;;
35606;SDS011;21729;58.392;15.656;2023-02-28T10:00:31;2.20;;;0.50;;
35606;SDS011;21729;58.392;15.656;2023-02-28T10:03:03;1.48;;;0.50;;
35606;SDS011;21729;58.392;15.656;2023-02-28T10:06:05;0.90;;;0.50;;
35606;SDS011;21729;58.392;15.656;2023-02-28T10:08:39;3.45;;;0.60;;
35606;SDS011;21729;58.392;15.656;2023-02-28T10:11:12;1.05;;;0.40;;
35606;SDS011;21729;58.392;15.656;2023-02-28T10:13:46;1.80;;;0.40;;
35606;SDS011;21729;58.392;15.656;2023-02-28T10:16:21;2.60;;;0.60;;
35606;SDS011;21729;58.392;15.656;2023-02-28T10:18:54;2.40;;;0.80;;
35606;SDS011;21729;58.392;15.656;2023-02-28T10:21:27;4.10;;;0.70;;
35606;SDS011;21729;58.392;15.656;2023-02-28T10:24:01;1.38;;;0.60;;
35606;SDS011;21729;58.392;15.656;2023-02-28T10:26:31;3.28;;;0.50;;
35606;SDS011;21729;58.392;15.656;2023-02-28T10:28:59;5.93;;;0.70;;
35606;SDS011;21729;58.392;15.656;2023-02-28T10:31:27;2.97;;;0.47;;
35606;SDS011;21729;58.392;15.656;2023-02-28T10:33:55;2.50;;;0.43;;
35606;SDS011;21729;58.392;15.656;2023-02-28T10:36:22;2.83;;;0.40;;
35606;SDS011;21729;58.392;15.656;2023-02-28T10:38:51;2.85;;;0.40;;
35606;SDS011;21729;58.392;15.656;2023-02-28T10:41:26;2.78;;;0.43;;
35606;SDS011;21729;58.392;15.656;2023-02-28T10:44:16;0.73;;;0.28;;
35606;SDS011;21729;58.392;15.656;2023-02-28T10:46:46;3.20;;;0.50;;
35606;SDS011;21729;58.392;15.656;2023-02-28T10:49:17;1.58;;;0.20;;
35606;SDS011;21729;58.392;15.656;2023-02-28T10:51:47;2.22;;;0.52;;
35606;SDS011;21729;58.392;15.656;2023-02-28T10:54:20;3.40;;;0.60;;
35606;SDS011;21729;58.392;15.656;2023-02-28T10:57:15;2.47;;;0.50;;
35606;SDS011;21729;58.392;15.656;2023-02-28T10:59:44;2.55;;;0.60;;
35606;SDS011;21729;58.392;15.656;2023-02-28T11:02:29;2.75;;;0.40;;
35606;SDS011;21729;58.392;15.656;2023-02-28T11:04:58;4.05;;;0.60;;
35606;SDS011;21729;58.392;15.656;2023-02-28T11:07:26;1.00;;;0.32;;
35606;SDS011;21729;58.392;15.656;2023-02-28T11:09:56;1.90;;;0.30;;
35606;SDS011;21729;58.392;15.656;2023-02-28T11:12:25;3.40;;;0.30;;
35606;SDS011;21729;58.392;15.656;2023-02-28T11:14:55;1.00;;;0.20;;
35606;SDS011;21729;58.392;15.656;2023-02-28T11:17:24;3.85;;;0.50;;
35606;SDS011;21729;58.392;15.656;2023-02-28T11:19:54;2.78;;;0.50;;
35606;SDS011;21729;58.392;15.656;2023-02-28T11:22:25;1.00;;;0.30;;
35606;SDS011;21729;58.392;15.656;2023-02-28T11:24:56;3.10;;;0.40;;
35606;SDS011;21729;58.392;15.656;2023-02-28T11:27:42;0.60;;;0.20;;
35606;SDS011;21729;58.392;15.656;2023-02-28T11:30:35;2.35;;;0.30;;
35606;SDS011;21729;58.392;15.656;2023-02-28T11:33:23;1.40;;;0.40;;
35606;SDS011;21729;58.392;15.656;2023-02-28T11:35:53;1.38;;;0.30;;
35606;SDS011;21729;58.392;15.656;2023-02-28T11:38:25;2.20;;;0.30;;
35606;SDS011;21729;58.392;15.656;2023-02-28T11:40:59;0.35;;;0.30;;
35606;SDS011;21729;58.392;15.656;2023-02-28T11:43:52;2.35;;;0.38;;
35606;SDS011;21729;58.392;15.656;2023-02-28T11:46:29;0.75;;;0.20;;
35606;SDS011;21729;58.392;15.656;2023-02-28T11:49:02;1.70;;;0.20;;
35606;SDS011;21729;58.392;15.656;2023-02-28T11:51:41;0.47;;;0.28;;
35606;SDS011;21729;58.392;15.656;2023-02-28T11:54:21;1.05;;;0.20;;
35606;SDS011;21729;58.392;15.656;2023-02-28T11:56:57;0.60;;;0.40;;
35606;SDS011;21729;58.392;15.656;2023-02-28T11:59:34;1.70;;;0.30;;
35606;SDS011;21729;58.392;15.656;2023-02-28T12:05:00;1.77;;;0.40;;
35606;SDS011;21729;58.392;15.656;2023-02-28T12:07:42;3.10;;;0.47;;
35606;SDS011;21729;58.392;15.656;2023-02-28T12:10:22;1.52;;;0.32;;
35606;SDS011;21729;58.392;15.656;2023-02-28T12:12:55;1.33;;;0.30;;
35606;SDS011;21729;58.392;15.656;2023-02-28T12:18:26;1.20;;;0.40;;
35606;SDS011;21729;58.392;15.656;2023-02-28T12:21:03;2.33;;;0.70;;
35606;SDS011;21729;58.392;15.656;2023-02-28T12:23:50;4.03;;;0.47;;
35606;SDS011;21729;58.392;15.656;2023-02-28T12:26:27;1.52;;;0.40;;
35606;SDS011;21729;58.392;15.656;2023-02-28T12:29:16;0.80;;;0.45;;
35606;SDS011;21729;58.392;15.656;2023-02-28T12:31:49;1.85;;;0.45;;
35606;SDS011;21729;58.392;15.656;2023-02-28T12:34:20;0.57;;;0.40;;
35606;SDS011;21729;58.392;15.656;2023-02-28T12:36:51;1.63;;;0.40;;
35606;SDS011;21729;58.392;15.656;2023-02-28T12:39:23;1.00;;;0.50;;
35606;SDS011;21729;58.392;15.656;2023-02-28T12:41:53;0.40;;;0.40;;
35606;SDS011;21729;58.392;15.656;2023-02-28T12:44:26;0.90;;;0.35;;
35606;SDS011;21729;58.392;15.656;2023-02-28T12:46:59;1.20;;;0.50;;
35606;SDS011;21729;58.392;15.656;2023-02-28T12:49:31;1.50;;;0.43;;
35606;SDS011;21729;58.392;15.656;2023-02-28T12:52:04;0.88;;;0.40;;
35606;SDS011;21729;58.392;15.656;2023-02-28T12:54:37;2.20;;;0.40;;
35606;SDS011;21729;58.392;15.656;2023-02-28T12:57:12;1.10;;;0.45;;
35606;SDS011;21729;58.392;15.656;2023-02-28T12:59:44;1.67;;;0.80;;
35606;SDS011;21729;58.392;15.656;2023-02-28T13:02:23;2.90;;;0.90;;
35606;SDS011;21729;58.392;15.656;2023-02-28T13:05:25;1.38;;;0.70;;
35606;SDS011;21729;58.392;15.656;2023-02-28T13:08:21;4.18;;;0.90;;
35606;SDS011;21729;58.392;15.656;2023-02-28T13:11:23;1.90;;;0.70;;
35606;SDS011;21729;58.392;15.656;2023-02-28T13:13:56;2.83;;;1.13;;
35606;SDS011;21729;58.392;15.656;2023-02-28T13:16:26;0.80;;;0.60;;
35606;SDS011;21729;58.392;15.656;2023-02-28T13:19:07;4.53;;;0.82;;
35606;SDS011;21729;58.392;15.656;2023-02-28T13:21:41;2.45;;;0.60;;
35606;SDS011;21729;58.392;15.656;2023-02-28T13:24:10;1.30;;;0.60;;
35606;SDS011;21729;58.392;15.656;2023-02-28T13:27:10;1.33;;;0.50;;
35606;SDS011;21729;58.392;15.656;2023-02-28T13:29:53;0.85;;;0.50;;
35606;SDS011;21729;58.392;15.656;2023-02-28T13:32:30;0.50;;;0.40;;
35606;SDS011;21729;58.392;15.656;2023-02-28T13:38:12;1.10;;;0.37;;
35606;SDS011;21729;58.392;15.656;2023-02-28T13:40:49;1.60;;;0.45;;
35606;SDS011;21729;58.392;15.656;2023-02-28T13:43:17;5.57;;;0.75;;
35606;SDS011;21729;58.392;15.656;2023-02-28T13:48:37;3.00;;;0.68;;
35606;SDS011;21729;58.392;15.656;2023-02-28T13:54:03;2.28;;;0.85;;
35606;SDS011;21729;58.392;15.656;2023-02-28T13:56:44;1.63;;;0.63;;
35606;SDS011;21729;58.392;15.656;2023-02-28T13:59:17;3.40;;;0.57;;
35606;SDS011;21729;58.392;15.656;2023-02-28T14:01:59;2.90;;;0.60;;
35606;SDS011;21729;58.392;15.656;2023-02-28T14:07:32;3.22;;;0.85;;
35606;SDS011;21729;58.392;15.656;2023-02-28T14:10:05;3.35;;;0.65;;
35606;SDS011;21729;58.392;15.656;2023-02-28T14:15:49;1.45;;;0.50;;
35606;SDS011;21729;58.392;15.656;2023-02-28T14:18:23;4.07;;;0.73;;
35606;SDS011;21729;58.392;15.656;2023-02-28T14:20:57;1.40;;;0.60;;
35606;SDS011;21729;58.392;15.656;2023-02-28T14:23:38;1.48;;;0.50;;
35606;SDS011;21729;58.392;15.656;2023-02-28T14:26:30;3.80;;;0.52;;
35606;SDS011;21729;58.392;15.656;2023-02-28T14:29:12;2.03;;;0.40;;
35606;SDS011;21729;58.392;15.656;2023-02-28T14:31:58;2.15;;;0.50;;
35606;SDS011;21729;58.392;15.656;2023-02-28T14:34:36;1.95;;;0.57;;
35606;SDS011;21729;58.392;15.656;2023-02-28T14:37:10;1.55;;;0.60;;
35606;SDS011;21729;58.392;15.656;2023-02-28T14:39:41;1.08;;;0.45;;
35606;SDS011;21729;58.392;15.656;2023-02-28T14:44:56;0.77;;;0.35;;
35606;SDS011;21729;58.392;15.656;2023-02-28T14:47:23;2.00;;;0.50;;
35606;SDS011;21729;58.392;15.656;2023-02-28T14:49:53;2.40;;;0.60;;
35606;SDS011;21729;58.392;15.656;2023-02-28T14:52:22;3.30;;;0.60;;
35606;SDS011;21729;58.392;15.656;2023-02-28T14:54:52;2.58;;;0.40;;
35606;SDS011;21729;58.392;15.656;2023-02-28T14:57:22;0.50;;;0.50;;
35606;SDS011;21729;58.392;15.656;2023-02-28T14:59:58;4.13;;;0.60;;
35606;SDS011;21729;58.392;15.656;2023-02-28T15:02:30;1.33;;;0.50;;
35606;SDS011;21729;58.392;15.656;2023-02-28T15:04:58;1.50;;;0.60;;
35606;SDS011;21729;58.392;15.656;2023-02-28T15:07:28;1.73;;;0.50;;
35606;SDS011;21729;58.392;15.656;2023-02-28T15:10:13;1.25;;;0.60;;
35606;SDS011;21729;58.392;15.656;2023-02-28T15:12:45;4.32;;;0.63;;
35606;SDS011;21729;58.392;15.656;2023-02-28T15:15:19;1.40;;;0.55;;
35606;SDS011;21729;58.392;15.656;2023-02-28T15:17:49;3.58;;;0.77;;
35606;SDS011;21729;58.392;15.656;2023-02-28T15:20:19;4.55;;;0.60;;
35606;SDS011;21729;58.392;15.656;2023-02-28T15:22:49;3.10;;;0.70;;
35606;SDS011;21729;58.392;15.656;2023-02-28T15:25:19;1.75;;;0.57;;
35606;SDS011;21729;58.392;15.656;2023-02-28T15:27:48;1.92;;;0.70;;
35606;SDS011;21729;58.392;15.656;2023-02-28T15:30:17;5.40;;;0.90;;